sensor_id;sensor_type;location;lat;lon;timestamp;pressure;altitude;pressure_sealevel;temperature;humidity
5777;BME280;2914;42.668;23.346;2022-09-09T00:03:44;94746.60;;;21.74;78.26
5777;BME280;2914;42.668;23.346;2022-09-09T00:06:19;94740.00;;;21.69;78.40
5777;BME280;2914;42.668;23.346;2022-09-09T00:08:53;94743.28;;;21.72;78.05
5777;BME280;2914;42.668;23.346;2022-09-09T00:11:26;94749.67;;;21.71;78.31
5777;BME280;2914;42.668;23.346;2022-09-09T00:13:56;94748.16;;;21.72;78.14
5777;BME280;2914;42.668;23.346;2022-09-09T00:16:28;94747.09;;;21.73;78.09
5777;BME280;2914;42.668;23.346;2022-09-09T00:19:02;94749.18;;;21.71;78.20
5777;BME280;2914;42.668;23.346;2022-09-09T00:21:35;94745.67;;;21.64;78.71
5777;BME280;2914;42.668;23.346;2022-09-09T00:24:12;94746.39;;;21.62;78.95
5777;BME280;2914;42.668;23.346;2022-09-09T00:26:44;94736.99;;;21.62;79.09
5777;BME280;2914;42.668;23.346;2022-09-09T00:29:20;94733.87;;;21.58;79.32
5777;BME280;2914;42.668;23.346;2022-09-09T00:31:49;94725.44;;;21.55;79.58
5777;BME280;2914;42.668;23.346;2022-09-09T00:34:22;94718.27;;;21.51;79.91
5777;BME280;2914;42.668;23.346;2022-09-09T00:39:34;94721.69;;;21.49;80.49
5777;BME280;2914;42.668;23.346;2022-09-09T00:42:11;94710.22;;;21.24;81.52
5777;BME280;2914;42.668;23.346;2022-09-09T00:44:49;94716.94;;;21.31;80.82
5777;BME280;2914;42.668;23.346;2022-09-09T00:47:29;94701.34;;;21.30;81.02
5777;BME280;2914;42.668;23.346;2022-09-09T00:50:01;94702.58;;;21.34;79.98
5777;BME280;2914;42.668;23.346;2022-09-09T00:52:36;94703.70;;;21.29;80.32
5777;BME280;2914;42.668;23.346;2022-09-09T00:55:10;94709.38;;;21.30;80.55
5777;BME280;2914;42.668;23.346;2022-09-09T00:57:39;94706.81;;;21.33;80.19
5777;BME280;2914;42.668;23.346;2022-09-09T01:00:22;94703.50;;;21.38;79.88
5777;BME280;2914;42.668;23.346;2022-09-09T01:03:11;94705.69;;;21.38;79.76
5777;BME280;2914;42.668;23.346;2022-09-09T01:05:44;94710.63;;;21.41;79.72
5777;BME280;2914;42.668;23.346;2022-09-09T01:10:48;94711.34;;;21.46;79.79
5777;BME280;2914;42.668;23.346;2022-09-09T01:13:22;94711.24;;;21.50;79.20
5777;BME280;2914;42.668;23.346;2022-09-09T01:15:51;94708.98;;;21.47;79.34
5777;BME280;2914;42.668;23.346;2022-09-09T01:18:23;94702.80;;;21.46;79.47
5777;BME280;2914;42.668;23.346;2022-09-09T01:21:00;94709.19;;;21.45;79.39
5777;BME280;2914;42.668;23.346;2022-09-09T01:23:37;94708.27;;;21.42;79.84
5777;BME280;2914;42.668;23.346;2022-09-09T01:26:22;94710.84;;;21.46;79.81
5777;BME280;2914;42.668;23.346;2022-09-09T01:28:53;94711.27;;;21.43;79.70
5777;BME280;2914;42.668;23.346;2022-09-09T01:31:26;94706.61;;;21.41;79.72
5777;BME280;2914;42.668;23.346;2022-09-09T01:33:55;94700.42;;;21.41;79.73
5777;BME280;2914;42.668;23.346;2022-09-09T01:36:29;94705.05;;;21.36;79.85
5777;BME280;2914;42.668;23.346;2022-09-09T01:41:38;94717.44;;;21.37;79.04
5777;BME280;2914;42.668;23.346;2022-09-09T01:44:09;94723.72;;;21.33;78.87
5777;BME280;2914;42.668;23.346;2022-09-09T01:46:39;94720.11;;;21.30;78.20
5777;BME280;2914;42.668;23.346;2022-09-09T01:49:11;94719.09;;;21.31;77.72
5777;BME280;2914;42.668;23.346;2022-09-09T01:51:41;94723.44;;;21.32;77.72
5777;BME280;2914;42.668;23.346;2022-09-09T01:54:11;94721.98;;;21.30;78.57
5777;BME280;2914;42.668;23.346;2022-09-09T01:56:46;94729.71;;;21.29;78.65
5777;BME280;2914;42.668;23.346;2022-09-09T01:59:23;94732.28;;;21.26;79.02
5777;BME280;2914;42.668;23.346;2022-09-09T02:01:59;94733.41;;;21.28;78.64
5777;BME280;2914;42.668;23.346;2022-09-09T02:04:35;94733.30;;;21.25;79.15
5777;BME280;2914;42.668;23.346;2022-09-09T02:07:09;94736.09;;;21.14;80.14
5777;BME280;2914;42.668;23.346;2022-09-09T02:09:39;94726.90;;;21.06;80.30
5777;BME280;2914;42.668;23.346;2022-09-09T02:12:12;94726.90;;;21.06;80.00
5777;BME280;2914;42.668;23.346;2022-09-09T02:14:46;94722.86;;;20.99;80.12
5777;BME280;2914;42.668;23.346;2022-09-09T02:17:17;94726.14;;;21.01;79.71
5777;BME280;2914;42.668;23.346;2022-09-09T02:19:49;94714.47;;;20.92;80.58
5777;BME280;2914;42.668;23.346;2022-09-09T02:22:22;94706.00;;;20.88;80.76
5777;BME280;2914;42.668;23.346;2022-09-09T02:24:52;94704.28;;;20.91;80.76
5777;BME280;2914;42.668;23.346;2022-09-09T02:27:24;94706.86;;;20.95;80.40
5777;BME280;2914;42.668;23.346;2022-09-09T02:29:54;94704.77;;;20.91;80.43
5777;BME280;2914;42.668;23.346;2022-09-09T02:32:25;94716.23;;;20.89;80.89
5777;BME280;2914;42.668;23.346;2022-09-09T02:34:57;94714.16;;;20.91;81.10
5777;BME280;2914;42.668;23.346;2022-09-09T02:37:29;94711.56;;;20.87;81.16
5777;BME280;2914;42.668;23.346;2022-09-09T02:39:59;94712.91;;;20.87;81.20
5777;BME280;2914;42.668;23.346;2022-09-09T02:42:28;94716.81;;;20.84;81.38
5777;BME280;2914;42.668;23.346;2022-09-09T02:44:57;94725.88;;;20.76;81.74
5777;BME280;2914;42.668;23.346;2022-09-09T02:47:31;94725.56;;;20.75;81.90
5777;BME280;2914;42.668;23.346;2022-09-09T02:50:07;94723.20;;;20.76;81.31
5777;BME280;2914;42.668;23.346;2022-09-09T02:52:45;94731.53;;;20.71;81.49
5777;BME280;2914;42.668;23.346;2022-09-09T02:55:17;94735.76;;;20.69;81.67
5777;BME280;2914;42.668;23.346;2022-09-09T02:57:49;94726.52;;;20.61;82.12
5777;BME280;2914;42.668;23.346;2022-09-09T03:00:25;94722.67;;;20.59;81.95
5777;BME280;2914;42.668;23.346;2022-09-09T03:02:55;94720.22;;;20.33;83.27
5777;BME280;2914;42.668;23.346;2022-09-09T03:05:24;94723.55;;;20.42;82.75
5777;BME280;2914;42.668;23.346;2022-09-09T03:07:53;94729.39;;;20.35;83.14
5777;BME280;2914;42.668;23.346;2022-09-09T03:10:22;94727.97;;;20.39;83.04
5777;BME280;2914;42.668;23.346;2022-09-09T03:12:52;94730.77;;;20.42;82.73
5777;BME280;2914;42.668;23.346;2022-09-09T03:15:21;94727.41;;;20.33;83.38
5777;BME280;2914;42.668;23.346;2022-09-09T03:17:50;94734.83;;;20.31;83.99
5777;BME280;2914;42.668;23.346;2022-09-09T03:20:20;94731.42;;;20.33;84.02
5777;BME280;2914;42.668;23.346;2022-09-09T03:22:49;94731.34;;;20.37;84.13
5777;BME280;2914;42.668;23.346;2022-09-09T03:25:18;94733.28;;;20.32;84.61
5777;BME280;2914;42.668;23.346;2022-09-09T03:27:47;94725.13;;;20.30;84.79
5777;BME280;2914;42.668;23.346;2022-09-09T03:30:17;94718.75;;;20.31;85.12
5777;BME280;2914;42.668;23.346;2022-09-09T03:32:46;94722.89;;;20.33;84.49
5777;BME280;2914;42.668;23.346;2022-09-09T03:35:16;94724.44;;;20.32;84.28
5777;BME280;2914;42.668;23.346;2022-09-09T03:37:45;94728.86;;;20.36;83.81
5777;BME280;2914;42.668;23.346;2022-09-09T03:40:14;94731.83;;;20.30;84.44
5777;BME280;2914;42.668;23.346;2022-09-09T03:42:43;94722.77;;;20.31;84.33
5777;BME280;2914;42.668;23.346;2022-09-09T03:45:12;94724.73;;;20.33;84.10
5777;BME280;2914;42.668;23.346;2022-09-09T03:47:42;94713.93;;;20.37;83.42
5777;BME280;2914;42.668;23.346;2022-09-09T03:50:11;94720.83;;;20.36;83.74
5777;BME280;2914;42.668;23.346;2022-09-09T03:52:41;94724.73;;;20.33;84.08
5777;BME280;2914;42.668;23.346;2022-09-09T03:55:11;94721.77;;;20.39;83.35
5777;BME280;2914;42.668;23.346;2022-09-09T03:57:40;94727.13;;;20.39;83.09
5777;BME280;2914;42.668;23.346;2022-09-09T04:02:50;94730.64;;;20.39;83.93
5777;BME280;2914;42.668;23.346;2022-09-09T04:05:21;94739.17;;;20.32;84.00
5777;BME280;2914;42.668;23.346;2022-09-09T04:10:30;94737.83;;;20.32;84.35
5777;BME280;2914;42.668;23.346;2022-09-09T04:15:37;94736.37;;;20.29;84.42
5777;BME280;2914;42.668;23.346;2022-09-09T04:18:06;94737.06;;;20.27;84.25
5777;BME280;2914;42.668;23.346;2022-09-09T04:20:35;94734.18;;;20.29;84.32
5777;BME280;2914;42.668;23.346;2022-09-09T04:23:04;94732.59;;;20.17;85.02
5777;BME280;2914;42.668;23.346;2022-09-09T04:25:33;94731.37;;;20.02;86.80
5777;BME280;2914;42.668;23.346;2022-09-09T04:28:03;94734.75;;;20.17;85.14
5777;BME280;2914;42.668;23.346;2022-09-09T04:30:32;94737.14;;;20.23;84.85
5777;BME280;2914;42.668;23.346;2022-09-09T04:33:02;94729.83;;;20.04;85.91
5777;BME280;2914;42.668;23.346;2022-09-09T04:35:31;94735.61;;;19.90;86.49
5777;BME280;2914;42.668;23.346;2022-09-09T04:40:38;94734.47;;;19.88;87.72
5777;BME280;2914;42.668;23.346;2022-09-09T04:43:10;94741.21;;;19.95;87.03
5777;BME280;2914;42.668;23.346;2022-09-09T04:45:39;94744.03;;;20.04;86.47
5777;BME280;2914;42.668;23.346;2022-09-09T04:48:11;94750.88;;;19.96;86.67
5777;BME280;2914;42.668;23.346;2022-09-09T04:50:41;94747.45;;;19.91;87.08
5777;BME280;2914;42.668;23.346;2022-09-09T04:53:10;94737.84;;;19.86;87.17
5777;BME280;2914;42.668;23.346;2022-09-09T04:55:39;94731.01;;;19.44;88.95
5777;BME280;2914;42.668;23.346;2022-09-09T04:58:09;94731.21;;;19.32;90.65
5777;BME280;2914;42.668;23.346;2022-09-09T05:00:38;94730.29;;;19.46;90.98
5777;BME280;2914;42.668;23.346;2022-09-09T05:03:07;94730.39;;;19.71;90.15
5777;BME280;2914;42.668;23.346;2022-09-09T05:05:36;94725.59;;;19.88;88.38
5777;BME280;2914;42.668;23.346;2022-09-09T05:08:07;94733.31;;;20.04;87.61
5777;BME280;2914;42.668;23.346;2022-09-09T05:10:38;94728.58;;;20.17;86.82
5777;BME280;2914;42.668;23.346;2022-09-09T05:13:09;94712.92;;;20.21;86.40
5777;BME280;2914;42.668;23.346;2022-09-09T05:15:38;94707.31;;;20.33;85.72
5777;BME280;2914;42.668;23.346;2022-09-09T05:18:08;94707.44;;;20.36;85.97
5777;BME280;2914;42.668;23.346;2022-09-09T05:20:37;94727.95;;;20.63;85.41
5777;BME280;2914;42.668;23.346;2022-09-09T05:23:07;94730.72;;;20.77;84.87
5777;BME280;2914;42.668;23.346;2022-09-09T05:25:37;94731.60;;;20.97;84.49
5777;BME280;2914;42.668;23.346;2022-09-09T05:28:06;94712.47;;;21.21;83.05
5777;BME280;2914;42.668;23.346;2022-09-09T05:30:35;94714.23;;;21.38;81.46
5777;BME280;2914;42.668;23.346;2022-09-09T05:33:04;94711.28;;;21.57;79.28
5777;BME280;2914;42.668;23.346;2022-09-09T05:35:34;94720.36;;;21.76;77.65
5777;BME280;2914;42.668;23.346;2022-09-09T05:40:47;94712.61;;;21.97;77.24
5777;BME280;2914;42.668;23.346;2022-09-09T05:43:17;94711.97;;;22.08;76.81
5777;BME280;2914;42.668;23.346;2022-09-09T05:45:47;94720.48;;;22.28;75.68
5777;BME280;2914;42.668;23.346;2022-09-09T05:48:17;94718.71;;;22.44;72.21
5777;BME280;2914;42.668;23.346;2022-09-09T05:50:52;94727.65;;;22.61;70.60
5777;BME280;2914;42.668;23.346;2022-09-09T05:56:01;94730.64;;;22.84;67.83
5777;BME280;2914;42.668;23.346;2022-09-09T05:58:31;94721.34;;;22.64;69.12
5777;BME280;2914;42.668;23.346;2022-09-09T06:01:05;94725.48;;;22.83;69.54
5777;BME280;2914;42.668;23.346;2022-09-09T06:03:35;94727.17;;;23.00;66.37
5777;BME280;2914;42.668;23.346;2022-09-09T06:06:07;94730.64;;;23.14;67.79
5777;BME280;2914;42.668;23.346;2022-09-09T06:08:37;94740.77;;;23.34;68.90
5777;BME280;2914;42.668;23.346;2022-09-09T06:11:09;94747.09;;;23.47;68.39
5777;BME280;2914;42.668;23.346;2022-09-09T06:13:38;94743.16;;;23.59;68.03
5777;BME280;2914;42.668;23.346;2022-09-09T06:16:09;94743.16;;;23.75;68.19
5777;BME280;2914;42.668;23.346;2022-09-09T06:18:39;94745.03;;;23.74;66.73
5777;BME280;2914;42.668;23.346;2022-09-09T06:21:11;94739.30;;;23.64;66.32
5777;BME280;2914;42.668;23.346;2022-09-09T06:23:40;94740.27;;;23.85;65.65
5777;BME280;2914;42.668;23.346;2022-09-09T06:26:11;94744.80;;;23.92;64.77
5777;BME280;2914;42.668;23.346;2022-09-09T06:28:41;94741.48;;;24.15;65.67
5777;BME280;2914;42.668;23.346;2022-09-09T06:31:11;94741.37;;;24.37;65.56
5777;BME280;2914;42.668;23.346;2022-09-09T06:33:42;94747.29;;;24.55;63.20
5777;BME280;2914;42.668;23.346;2022-09-09T06:36:13;94740.78;;;24.63;62.14
5777;BME280;2914;42.668;23.346;2022-09-09T06:38:43;94737.43;;;24.77;62.27
5777;BME280;2914;42.668;23.346;2022-09-09T06:41:15;94730.30;;;24.83;61.78
5777;BME280;2914;42.668;23.346;2022-09-09T06:43:45;94731.41;;;24.94;60.82
5777;BME280;2914;42.668;23.346;2022-09-09T06:46:16;94729.69;;;24.90;61.47
5777;BME280;2914;42.668;23.346;2022-09-09T06:48:46;94727.33;;;25.03;60.38
5777;BME280;2914;42.668;23.346;2022-09-09T06:51:16;94727.62;;;25.13;60.48
5777;BME280;2914;42.668;23.346;2022-09-09T06:53:47;94739.06;;;25.18;59.63
5777;BME280;2914;42.668;23.346;2022-09-09T06:56:20;94745.03;;;25.29;56.78
5777;BME280;2914;42.668;23.346;2022-09-09T06:58:51;94748.95;;;25.33;56.44
5777;BME280;2914;42.668;23.346;2022-09-09T07:01:24;94746.70;;;25.21;57.11
5777;BME280;2914;42.668;23.346;2022-09-09T07:03:55;94749.15;;;25.32;58.66
5777;BME280;2914;42.668;23.346;2022-09-09T07:06:27;94749.06;;;25.48;56.04
5777;BME280;2914;42.668;23.346;2022-09-09T07:08:58;94753.59;;;25.56;56.40
5777;BME280;2914;42.668;23.346;2022-09-09T07:11:30;94755.86;;;25.60;56.71
5777;BME280;2914;42.668;23.346;2022-09-09T07:14:00;94747.35;;;25.65;56.37
5777;BME280;2914;42.668;23.346;2022-09-09T07:16:30;94746.11;;;25.70;55.57
5777;BME280;2914;42.668;23.346;2022-09-09T07:19:02;94739.31;;;25.80;55.82
5777;BME280;2914;42.668;23.346;2022-09-09T07:21:32;94737.86;;;25.86;55.48
5777;BME280;2914;42.668;23.346;2022-09-09T07:24:02;94735.59;;;25.93;55.95
5777;BME280;2914;42.668;23.346;2022-09-09T07:26:33;94738.55;;;26.03;55.63
5777;BME280;2914;42.668;23.346;2022-09-09T07:29:06;94740.66;;;26.01;54.46
5777;BME280;2914;42.668;23.346;2022-09-09T07:31:36;94734.64;;;25.33;55.69
5777;BME280;2914;42.668;23.346;2022-09-09T07:34:07;94732.45;;;24.93;56.63
5777;BME280;2914;42.668;23.346;2022-09-09T07:36:38;94734.37;;;25.04;56.98
5777;BME280;2914;42.668;23.346;2022-09-09T07:39:09;94728.64;;;25.21;56.06
5777;BME280;2914;42.668;23.346;2022-09-09T07:41:40;94724.04;;;25.31;56.46
5777;BME280;2914;42.668;23.346;2022-09-09T07:44:11;94729.14;;;25.39;57.82
5777;BME280;2914;42.668;23.346;2022-09-09T07:46:41;94729.36;;;25.59;58.94
5777;BME280;2914;42.668;23.346;2022-09-09T07:49:12;94737.56;;;25.85;55.30
5777;BME280;2914;42.668;23.346;2022-09-09T07:51:43;94738.17;;;25.66;53.94
5777;BME280;2914;42.668;23.346;2022-09-09T07:54:14;94738.12;;;25.43;54.08
5777;BME280;2914;42.668;23.346;2022-09-09T07:56:46;94739.59;;;25.69;56.40
5777;BME280;2914;42.668;23.346;2022-09-09T07:59:17;94736.64;;;25.91;54.28
5777;BME280;2914;42.668;23.346;2022-09-09T08:01:48;94735.45;;;26.20;54.30
5777;BME280;2914;42.668;23.346;2022-09-09T08:04:20;94739.66;;;26.40;53.45
5777;BME280;2914;42.668;23.346;2022-09-09T08:06:52;94726.20;;;26.31;51.70
5777;BME280;2914;42.668;23.346;2022-09-09T08:09:21;94729.36;;;26.51;52.06
5777;BME280;2914;42.668;23.346;2022-09-09T08:11:52;94731.47;;;26.73;51.24
5777;BME280;2914;42.668;23.346;2022-09-09T08:14:22;94733.97;;;26.89;51.72
5777;BME280;2914;42.668;23.346;2022-09-09T08:16:51;94728.31;;;27.05;51.17
5777;BME280;2914;42.668;23.346;2022-09-09T08:19:21;94726.00;;;27.11;50.15
5777;BME280;2914;42.668;23.346;2022-09-09T08:21:51;94723.73;;;27.05;49.63
5777;BME280;2914;42.668;23.346;2022-09-09T08:24:20;94719.02;;;27.01;49.28
5777;BME280;2914;42.668;23.346;2022-09-09T08:26:50;94722.45;;;27.11;49.58
5777;BME280;2914;42.668;23.346;2022-09-09T08:29:20;94722.51;;;27.13;49.91
5777;BME280;2914;42.668;23.346;2022-09-09T08:31:50;94728.55;;;27.03;49.78
5777;BME280;2914;42.668;23.346;2022-09-09T08:34:20;94721.23;;;26.51;50.07
5777;BME280;2914;42.668;23.346;2022-09-09T08:36:50;94723.62;;;26.36;50.88
5777;BME280;2914;42.668;23.346;2022-09-09T08:39:22;94724.28;;;26.29;51.26
5777;BME280;2914;42.668;23.346;2022-09-09T08:45:14;94724.76;;;26.26;52.48
5777;BME280;2914;42.668;23.346;2022-09-09T08:47:47;94728.17;;;26.09;53.67
5777;BME280;2914;42.668;23.346;2022-09-09T08:50:21;94720.34;;;25.77;54.02
5777;BME280;2914;42.668;23.346;2022-09-09T08:53:00;94711.19;;;25.78;53.01
5777;BME280;2914;42.668;23.346;2022-09-09T08:55:37;94713.31;;;25.76;53.19
5777;BME280;2914;42.668;23.346;2022-09-09T09:01:17;94715.52;;;25.55;54.92
5777;BME280;2914;42.668;23.346;2022-09-09T09:03:52;94715.75;;;25.66;55.11
5777;BME280;2914;42.668;23.346;2022-09-09T09:06:33;94711.40;;;25.65;54.89
5777;BME280;2914;42.668;23.346;2022-09-09T09:09:06;94715.84;;;25.80;55.34
5777;BME280;2914;42.668;23.346;2022-09-09T09:14:19;94706.50;;;25.40;54.89
5777;BME280;2914;42.668;23.346;2022-09-09T09:16:54;94709.34;;;25.57;54.81
5777;BME280;2914;42.668;23.346;2022-09-09T09:19:27;94713.66;;;25.68;54.33
5777;BME280;2914;42.668;23.346;2022-09-09T09:21:59;94713.59;;;25.77;55.79
5777;BME280;2914;42.668;23.346;2022-09-09T09:24:34;94709.48;;;25.63;55.14
5777;BME280;2914;42.668;23.346;2022-09-09T09:27:10;94708.53;;;25.57;54.98
5777;BME280;2914;42.668;23.346;2022-09-09T09:29:39;94707.75;;;25.59;54.71
5777;BME280;2914;42.668;23.346;2022-09-09T09:32:11;94701.44;;;25.65;55.15
5777;BME280;2914;42.668;23.346;2022-09-09T09:34:41;94706.20;;;25.72;54.51
5777;BME280;2914;42.668;23.346;2022-09-09T09:37:15;94707.86;;;25.52;54.47
5777;BME280;2914;42.668;23.346;2022-09-09T09:39:47;94703.26;;;25.41;54.66
5777;BME280;2914;42.668;23.346;2022-09-09T09:42:18;94702.02;;;25.55;54.85
5777;BME280;2914;42.668;23.346;2022-09-09T09:44:47;94697.86;;;25.41;54.67
5777;BME280;2914;42.668;23.346;2022-09-09T09:47:18;94698.98;;;25.43;55.61
5777;BME280;2914;42.668;23.346;2022-09-09T09:49:54;94693.67;;;25.69;56.76
5777;BME280;2914;42.668;23.346;2022-09-09T09:52:26;94684.12;;;25.64;55.23
5777;BME280;2914;42.668;23.346;2022-09-09T09:54:57;94685.12;;;25.72;55.63
5777;BME280;2914;42.668;23.346;2022-09-09T09:57:29;94684.73;;;25.56;56.15
5777;BME280;2914;42.668;23.346;2022-09-09T10:00:11;94677.88;;;25.63;55.62
5777;BME280;2914;42.668;23.346;2022-09-09T10:02:40;94676.23;;;25.50;55.43
5777;BME280;2914;42.668;23.346;2022-09-09T10:05:15;94678.02;;;25.35;55.87
5777;BME280;2914;42.668;23.346;2022-09-09T10:07:45;94673.80;;;25.39;56.09
5777;BME280;2914;42.668;23.346;2022-09-09T10:10:19;94671.88;;;25.28;55.50
5777;BME280;2914;42.668;23.346;2022-09-09T10:12:54;94680.55;;;25.39;55.34
5777;BME280;2914;42.668;23.346;2022-09-09T10:15:32;94685.58;;;25.57;55.76
5777;BME280;2914;42.668;23.346;2022-09-09T10:18:08;94686.69;;;25.59;56.61
5777;BME280;2914;42.668;23.346;2022-09-09T10:20:40;94691.34;;;25.72;56.49
5777;BME280;2914;42.668;23.346;2022-09-09T10:23:20;94695.41;;;25.84;56.04
5777;BME280;2914;42.668;23.346;2022-09-09T10:26:07;94697.45;;;25.80;56.13
5777;BME280;2914;42.668;23.346;2022-09-09T10:31:25;94692.54;;;25.88;55.61
5777;BME280;2914;42.668;23.346;2022-09-09T10:36:43;94686.11;;;25.92;56.86
5777;BME280;2914;42.668;23.346;2022-09-09T10:41:55;94697.05;;;25.97;57.83
5777;BME280;2914;42.668;23.346;2022-09-09T10:44:35;94690.95;;;25.90;56.92
5777;BME280;2914;42.668;23.346;2022-09-09T10:50:35;94698.56;;;25.81;57.63
5777;BME280;2914;42.668;23.346;2022-09-09T10:53:11;94699.91;;;25.81;57.83
5777;BME280;2914;42.668;23.346;2022-09-09T10:55:43;94696.46;;;25.83;57.57
5777;BME280;2914;42.668;23.346;2022-09-09T10:58:17;94704.91;;;25.87;58.71
5777;BME280;2914;42.668;23.346;2022-09-09T11:00:48;94694.46;;;25.90;59.33
5777;BME280;2914;42.668;23.346;2022-09-09T11:03:20;94695.23;;;25.88;58.91
5777;BME280;2914;42.668;23.346;2022-09-09T11:05:53;94695.23;;;25.88;58.79
5777;BME280;2914;42.668;23.346;2022-09-09T11:08:26;94692.28;;;25.78;57.77
5777;BME280;2914;42.668;23.346;2022-09-09T11:10:58;94695.59;;;25.80;58.22
5777;BME280;2914;42.668;23.346;2022-09-09T11:13:33;94695.97;;;25.74;58.17
5777;BME280;2914;42.668;23.346;2022-09-09T11:16:04;94694.28;;;25.71;59.33
5777;BME280;2914;42.668;23.346;2022-09-09T11:18:36;94693.56;;;25.76;58.66
5777;BME280;2914;42.668;23.346;2022-09-09T11:21:09;94690.63;;;25.77;58.51
5777;BME280;2914;42.668;23.346;2022-09-09T11:23:40;94688.83;;;25.80;59.63
5777;BME280;2914;42.668;23.346;2022-09-09T11:26:12;94685.83;;;25.79;58.50
5777;BME280;2914;42.668;23.346;2022-09-09T11:28:50;94681.91;;;25.84;58.62
5777;BME280;2914;42.668;23.346;2022-09-09T11:31:26;94675.25;;;25.89;58.32
5777;BME280;2914;42.668;23.346;2022-09-09T11:34:01;94677.67;;;25.88;58.43
5777;BME280;2914;42.668;23.346;2022-09-09T11:39:47;94654.56;;;25.95;60.47
5777;BME280;2914;42.668;23.346;2022-09-09T11:42:19;94645.02;;;26.02;60.16
5777;BME280;2914;42.668;23.346;2022-09-09T11:44:49;94637.84;;;25.96;59.71
5777;BME280;2914;42.668;23.346;2022-09-09T11:47:23;94647.88;;;25.98;59.17
5777;BME280;2914;42.668;23.346;2022-09-09T11:49:54;94636.49;;;25.96;59.19
5777;BME280;2914;42.668;23.346;2022-09-09T11:52:34;94629.25;;;25.99;59.09
5777;BME280;2914;42.668;23.346;2022-09-09T11:54:56;94608.42;;;25.97;58.90
5777;BME280;2914;42.668;23.346;2022-09-09T11:57:30;94593.56;;;25.97;59.09
5777;BME280;2914;42.668;23.346;2022-09-09T11:59:59;94597.07;;;25.97;59.39
5777;BME280;2914;42.668;23.346;2022-09-09T12:02:29;94601.48;;;25.89;59.11
5777;BME280;2914;42.668;23.346;2022-09-09T12:05:02;94602.47;;;25.97;58.96
5777;BME280;2914;42.668;23.346;2022-09-09T12:07:38;94616.34;;;26.01;58.82
5777;BME280;2914;42.668;23.346;2022-09-09T12:10:24;94611.66;;;26.08;58.63
5777;BME280;2914;42.668;23.346;2022-09-09T12:12:53;94607.93;;;26.12;58.78
5777;BME280;2914;42.668;23.346;2022-09-09T12:15:27;94609.25;;;26.09;60.02
5777;BME280;2914;42.668;23.346;2022-09-09T12:17:57;94597.83;;;26.19;60.08
5777;BME280;2914;42.668;23.346;2022-09-09T12:20:34;94597.29;;;26.19;60.23
5777;BME280;2914;42.668;23.346;2022-09-09T12:23:18;94590.76;;;26.30;59.81
5777;BME280;2914;42.668;23.346;2022-09-09T12:28:54;94595.32;;;26.29;58.74
5777;BME280;2914;42.668;23.346;2022-09-09T12:31:27;94593.78;;;26.33;58.92
5777;BME280;2914;42.668;23.346;2022-09-09T12:34:04;94591.02;;;26.31;59.57
5777;BME280;2914;42.668;23.346;2022-09-09T12:36:35;94583.32;;;26.37;59.33
5777;BME280;2914;42.668;23.346;2022-09-09T12:39:16;94580.56;;;26.34;59.45
5777;BME280;2914;42.668;23.346;2022-09-09T12:41:53;94569.80;;;26.37;59.35
5777;BME280;2914;42.668;23.346;2022-09-09T12:44:26;94567.77;;;26.44;59.38
5777;BME280;2914;42.668;23.346;2022-09-09T12:46:59;94571.02;;;26.44;60.37
5777;BME280;2914;42.668;23.346;2022-09-09T12:49:32;94567.67;;;26.24;61.11
5777;BME280;2914;42.668;23.346;2022-09-09T12:52:07;94568.45;;;26.37;61.09
5777;BME280;2914;42.668;23.346;2022-09-09T12:54:38;94569.50;;;26.36;62.78
5777;BME280;2914;42.668;23.346;2022-09-09T12:57:12;94564.69;;;26.38;61.79
5777;BME280;2914;42.668;23.346;2022-09-09T12:59:43;94564.39;;;26.37;61.58
5777;BME280;2914;42.668;23.346;2022-09-09T13:02:18;94556.66;;;26.29;61.76
5777;BME280;2914;42.668;23.346;2022-09-09T13:04:48;94552.84;;;26.41;61.59
5777;BME280;2914;42.668;23.346;2022-09-09T13:07:18;94545.07;;;26.16;61.29
5777;BME280;2914;42.668;23.346;2022-09-09T13:09:48;94538.09;;;26.06;61.03
5777;BME280;2914;42.668;23.346;2022-09-09T13:12:20;94543.58;;;26.23;61.01
5777;BME280;2914;42.668;23.346;2022-09-09T13:14:52;94551.09;;;26.21;61.44
5777;BME280;2914;42.668;23.346;2022-09-09T13:17:24;94547.28;;;26.19;61.43
5777;BME280;2914;42.668;23.346;2022-09-09T13:19:54;94546.06;;;26.13;61.81
5777;BME280;2914;42.668;23.346;2022-09-09T13:22:28;94540.88;;;26.23;61.59
5777;BME280;2914;42.668;23.346;2022-09-09T13:25:06;94547.25;;;26.31;61.49
5777;BME280;2914;42.668;23.346;2022-09-09T13:27:39;94545.01;;;26.28;62.09
5777;BME280;2914;42.668;23.346;2022-09-09T13:35:57;94523.17;;;26.30;62.11
5777;BME280;2914;42.668;23.346;2022-09-09T13:41:08;94522.95;;;26.19;62.11
5777;BME280;2914;42.668;23.346;2022-09-09T13:43:41;94515.09;;;26.18;62.03
5777;BME280;2914;42.668;23.346;2022-09-09T13:46:25;94519.39;;;26.16;62.06
5777;BME280;2914;42.668;23.346;2022-09-09T13:48:56;94514.28;;;26.17;62.16
5777;BME280;2914;42.668;23.346;2022-09-09T13:51:35;94511.90;;;26.21;62.30
5777;BME280;2914;42.668;23.346;2022-09-09T13:54:06;94504.42;;;26.11;62.61
5777;BME280;2914;42.668;23.346;2022-09-09T13:56:36;94505.09;;;26.18;62.17
5777;BME280;2914;42.668;23.346;2022-09-09T13:59:10;94507.84;;;26.21;62.25
5777;BME280;2914;42.668;23.346;2022-09-09T14:01:39;94511.84;;;26.18;62.28
5777;BME280;2914;42.668;23.346;2022-09-09T14:04:09;94505.20;;;26.23;61.98
5777;BME280;2914;42.668;23.346;2022-09-09T14:06:39;94498.84;;;26.30;61.81
5777;BME280;2914;42.668;23.346;2022-09-09T14:11:47;94500.21;;;26.32;62.31
5777;BME280;2914;42.668;23.346;2022-09-09T14:14:16;94504.45;;;26.28;61.79
5777;BME280;2914;42.668;23.346;2022-09-09T14:16:45;94504.05;;;26.34;61.72
5777;BME280;2914;42.668;23.346;2022-09-09T14:19:14;94493.45;;;26.32;61.60
5777;BME280;2914;42.668;23.346;2022-09-09T14:21:44;94490.80;;;26.35;61.07
5777;BME280;2914;42.668;23.346;2022-09-09T14:24:13;94495.34;;;26.32;60.91
5777;BME280;2914;42.668;23.346;2022-09-09T14:26:42;94495.17;;;26.21;61.64
5777;BME280;2914;42.668;23.346;2022-09-09T14:29:11;94483.92;;;26.27;61.43
5777;BME280;2914;42.668;23.346;2022-09-09T14:31:40;94485.52;;;26.26;62.15
5777;BME280;2914;42.668;23.346;2022-09-09T14:34:09;94483.77;;;26.05;62.72
5777;BME280;2914;42.668;23.346;2022-09-09T14:36:38;94486.61;;;26.13;62.75
5777;BME280;2914;42.668;23.346;2022-09-09T14:39:09;94494.38;;;26.23;61.69